x

Portland 12 Nm Southeast Of Portland,me (44007) Wave Buoy

1:50 - Sat 25th Jun 2016 All times are EDT. -4 hours from GMT.

  • Sig Wave height 2.0ft
  • Swell Direction
  • Peak Period 7s
  • Average Period 6s
  • Wind
  • Sea Temp 58°f
  • Ar Temp 59°f
  • Sea Pressure 1021mb
  • Portland 12 Nm Southeast Of Portland,me
  • Portland 12 Nm Southeast Of Portland,me

More Historic Weather Station data

Upgrade to MSW Pro to gain access to the past 30 days of data for over 8000 Wavebouys and Weather Stations around the globe.

Join Pro

Comparision Forecast

View Surf forecast
   
Sáb 06/25 1:50 2ft 7s 6s  -  2 mph 1021mb 58f 59f
12:50 2ft 7s 6s 2
mph
1020.8mb 58f 59f
Sex 06/24 11:50 1.6ft 8s 6s 2 4 mph 1020.8mb 58f 58f
10:50 1.6ft 7s 6s 4
mph
1020.9mb 58f 59f
9:50 1.6ft 7s 6s 4 7 mph 1020.8mb 58f 59f
8:50 1.6ft 8s 6s 4 7 mph 1020.4mb 59f 59f
7:50 1.6ft 8s 6s 7
mph
1020.1mb 59f 60f
6:50 1.6ft 8s 6s 9
mph
1019.5mb 59f 61f
5:50 2ft 7s 6s 7 9 mph 1019.4mb 59f 60f
4:50 1.6ft 7s 6s 11
mph
1019mb 60f 61f
3:50 2ft 8s 6s 9 11 mph 1019mb 59f 61f
2:50 2.5ft 8s 6s 9 11 mph 1018.7mb 59f 61f
1:50 2.5ft 8s 6s 11 13 mph 1018.6mb 60f 61f
12:50 2ft 7s 6s 9
mph
1018.7mb 60f 61f
11:50 2.5ft 7s 6s 7 9 mph 1018.7mb 60f 61f
10:50 2ft 7s 6s 4
mph
1018.4mb 59f 61f
9:50 2ft 8s 6s 2
mph
1018.1mb 57f 60f
8:50 2ft 8s 6s 4 7 mph 1017.6mb 56f 59f
7:50 2ft 8s 6s 9 11 mph 1016.8mb 56f 58f
6:50 2ft 8s 6s 7 9 mph 1016.1mb 56f 58f
4:50 2.5ft 7s 6s 7
mph
1014.4mb 57f 58f
3:50 2.5ft 7s 6s 7
mph
1013.2mb 57f 60f
2:50 2.5ft 7s 6s 9 11 mph 1012.7mb 57f 60f
1:50 3ft 8s 6s 4 7 mph 1012.4mb 57f 59f
12:50 2.5ft 8s 6s 4
mph
1012.2mb 58f 61f
Qui 06/23 11:50 3ft 8s 6s 4
mph
1012.3mb 58f 63f
10:50 2.5ft 8s 6s 2 4 mph 1012mb 58f 62f
9:50 2.5ft 8s 6s 7
mph
1011.4mb 58f 59f
8:50 2.5ft 8s 5s 7
mph
1010.8mb 58f 59f
7:50 2.5ft 8s 5s 13 16 mph 1010.3mb 58f 60f
6:50 2.5ft 8s 5s 11
mph
1010.2mb 58f 61f
5:50 2.5ft 8s 5s 16
mph
1009.9mb 58f 61f
4:50 2.5ft 9s 5s 13 16 mph 1009.9mb 58f 61f
3:50 2.5ft 8s 5s 13
mph
1009.9mb 58f 61f
2:50 2.5ft 9s 6s 13
mph
1010.3mb 58f 61f
1:50 2.5ft 9s 7s 11
mph
1010.5mb 58f 61f
12:50 3ft 9s 7s 9 11 mph 1010.8mb 58f 61f
11:50 3ft 8s 7s 9 11 mph 1011.4mb 58f 61f
10:50 3ft 7s 7s 9
mph
1011.6mb 58f 59f
9:50 3.5ft 9s 7s 7
mph
1011.9mb 57f 62f
8:50 3ft 8s 7s 7
mph
1012.5mb 56f 58f
7:50 3ft 8s 7s 7
mph
1012mb 56f 57f
6:50 2.5ft 8s 7s 7 11 mph 1011.8mb 56f 58f
5:50 2.5ft 9s 7s 4
mph
1011.4mb 56f 56f
3:50 2.5ft 9s 7s 11 13 mph 1010.8mb 56f 58f
2:50 2.5ft 9s 7s 7 9 mph 1010.7mb 56f 57f
1:50 3ft 9s 7s 7
mph
1010.8mb 56f 57f
12:50 2.5ft 8s 7s 7 9 mph 1011.3mb 56f 58f
Qua 06/22 11:50 3ft 8s 7s 4 7 mph 1011.4mb 56f 60f
10:50 3ft 8s 7s 7 9 mph 1010.9mb 56f 63f
9:50 3ft 8s 7s 2 4 mph 1011.1mb 56f 60f
8:50 3ft 8s 7s 2 4 mph 1010.4mb 56f 61f
7:50 3ft 8s 7s 7 9 mph 1009.8mb 57f 63f
6:50 3ft 8s 6s 9 11 mph 1009mb 57f 64f
5:50 3.5ft 8s 6s 9 13 mph 1008.3mb 57f 64f
4:50 3ft 7s 7s 11 13 mph 1008.3mb 57f 63f
3:50 3ft 8s 6s 7 9 mph 1007.9mb 57f 58f
2:50 3.5ft 8s 6s 4 7 mph 1007.9mb 57f 58f
1:50 4ft 8s 7s 22 27 mph 1008.8mb 58f 60f
12:50 4ft 7s 7s 4 7 mph 1007.1mb 58f 59f
11:50 3.5ft 8s 7s 4 7 mph 1007.7mb 59f 62f
10:50 3.5ft 8s 7s 4 7 mph 1007.6mb 58f 60f
9:50 3.5ft 8s 7s 4
mph
1007.8mb 56f 59f
8:50 3.5ft 8s 7s 7
mph
1008.2mb 56f 58f
7:50 3.5ft 9s 7s 2 4 mph 1008.6mb 55f 57f
6:50 3ft 9s 7s 4 7 mph 1008.1mb 55f 58f
5:50 3ft 9s 6s 4
mph
1007.8mb 55f 58f
3:50 3.5ft 10s 6s 4 7 mph 1007.9mb 55f 58f
2:50 3ft 10s 6s 2 4 mph 1007.8mb 55f 59f
1:50 3.5ft 10s 6s 4 7 mph 1007.6mb 55f 59f
12:50 4ft 10s 7s 7 9 mph 1007.1mb 55f 62f
Ter 06/21 11:50 3.5ft 11s 6s 2 4 mph 1007.6mb 55f 67f
10:50 3.5ft 10s 7s 2 7 mph 1008mb 56f 66f
9:50 4ft 8s 7s 2 4 mph 1007.3mb 56f 68f
8:50 3.5ft 10s 6s 7 9 mph 1006.2mb 56f 65f
7:50 4ft 8s 6s 9 11 mph 1005.6mb 56f 67f
6:50 4ft 9s 6s 11 13 mph 1004.9mb 56f 66f
5:50 3.5ft 10s 5s 13 16 mph 1003.9mb 55f 69f
4:50 4ft 9s 6s 11 16 mph 1003.7mb 55f 69f
3:50 3.5ft 10s 6s 9 11 mph 1004mb 56f 60f
2:50 3.5ft 9s 6s 11 13 mph 1004.2mb 55f 60f
1:50 3.5ft 10s 6s 11 13 mph 1004.4mb 55f 61f
12:50 3.5ft 9s 5s 16 18 mph 1005mb 54f 62f
11:50 3.5ft 8s 5s 13 16 mph 1005.2mb 54f 61f
10:50 3.5ft 9s 5s 16 18 mph 1004.9mb 54f 62f
9:50 3.5ft 8s 5s 16 18 mph 1004.8mb 54f 59f
8:50 4ft 5s 5s 20 22 mph 1004.9mb 54f 60f
7:50 3.5ft 6s 5s 18 22 mph 1004.8mb 54f 58f